createdAt,value
2018-12-21T00:00:00.842Z,95969.87
2018-12-21T00:02:28.384Z,95975.49
2018-12-21T00:04:55.899Z,95978.48
2018-12-21T00:07:23.421Z,95974.68
2018-12-21T00:09:50.978Z,95981.72
2018-12-21T00:12:18.506Z,95980.30
2018-12-21T00:14:46.170Z,95991.81
2018-12-21T00:17:13.716Z,95980.94
2018-12-21T00:19:41.267Z,95989.77
2018-12-21T00:22:08.797Z,95988.80
2018-12-21T00:24:36.372Z,95990.55
2018-12-21T00:27:04.428Z,95994.41
2018-12-21T00:29:32.296Z,96002.38
2018-12-21T00:32:05.543Z,96000.73
2018-12-21T00:34:38.726Z,96005.20
2018-12-21T00:37:11.736Z,96001.42
2018-12-21T00:39:44.993Z,96005.67
2018-12-21T00:42:15.002Z,95997.96
2018-12-21T00:44:42.936Z,96007.44
2018-12-21T00:47:11.919Z,96009.98
2018-12-21T00:49:39.439Z,95997.01
2018-12-21T00:52:07.457Z,96000.75
2018-12-21T00:54:34.968Z,96003.73
2018-12-21T00:57:02.480Z,96002.95
2018-12-21T00:59:30.428Z,95999.45
2018-12-21T01:01:57.976Z,96002.60
2018-12-21T01:04:25.488Z,96000.33
2018-12-21T01:06:53.044Z,95992.77
2018-12-21T01:09:20.556Z,95991.78
2018-12-21T01:11:48.109Z,96004.20
2018-12-21T01:14:15.892Z,95997.55
2018-12-21T01:16:43.536Z,96000.16
2018-12-21T01:19:11.057Z,96002.77
2018-12-21T01:21:39.179Z,96000.86
2018-12-21T01:24:06.869Z,96007.68
2018-12-21T01:26:34.383Z,96003.23
2018-12-21T01:29:02.180Z,96004.30
2018-12-21T01:31:29.697Z,96000.97
2018-12-21T01:33:57.224Z,96004.22
2018-12-21T01:36:24.767Z,95998.35
2018-12-21T01:38:52.284Z,95990.02
2018-12-21T01:41:19.814Z,95997.98
2018-12-21T01:43:47.625Z,95992.28
2018-12-21T01:46:15.152Z,95993.93
2018-12-21T01:48:42.684Z,96003.02
2018-12-21T01:51:10.521Z,95998.06
2018-12-21T01:53:38.365Z,95993.93
2018-12-21T01:56:05.886Z,96003.02
2018-12-21T01:58:33.501Z,96002.71
2018-12-21T02:01:01.064Z,95996.14
2018-12-21T02:03:28.589Z,96001.51
2018-12-21T02:05:56.103Z,96003.41
2018-12-21T02:08:23.913Z,96000.09
2018-12-21T02:10:51.432Z,95994.55
2018-12-21T02:13:18.943Z,95989.30
2018-12-21T02:15:46.645Z,95990.00
2018-12-21T02:18:14.169Z,95987.93
2018-12-21T02:20:41.684Z,95987.93
2018-12-21T02:23:09.219Z,95992.59
2018-12-21T02:25:36.737Z,95990.14
2018-12-21T02:28:04.263Z,95991.00
2018-12-21T02:30:32.086Z,95990.45
2018-12-21T02:32:59.606Z,95987.68
2018-12-21T02:35:27.165Z,95989.36
2018-12-21T02:37:54.730Z,95984.41
2018-12-21T02:40:22.264Z,95979.27
2018-12-21T02:42:49.844Z,95989.36
2018-12-21T02:45:17.729Z,95991.56
2018-12-21T02:47:45.284Z,95997.63
2018-12-21T02:50:12.827Z,95996.84
2018-12-21T02:52:40.613Z,95993.80
2018-12-21T02:55:08.138Z,95998.05
2018-12-21T02:57:35.718Z,95990.84
2018-12-21T03:00:05.241Z,95990.00
2018-12-21T03:02:32.777Z,95989.66
2018-12-21T03:05:00.305Z,95988.62
2018-12-21T03:07:27.891Z,95991.59
2018-12-21T03:09:55.409Z,95993.48
2018-12-21T03:12:22.920Z,95997.52
2018-12-21T03:14:50.473Z,95996.28
2018-12-21T03:17:17.995Z,96004.27
2018-12-21T03:19:45.518Z,95999.64
2018-12-21T03:22:15.174Z,96007.05
2018-12-21T03:24:42.953Z,96001.29
2018-12-21T03:27:10.468Z,95990.87
2018-12-21T03:29:38.377Z,95988.62
2018-12-21T03:32:05.941Z,95990.87
2018-12-21T03:34:33.481Z,95998.22
2018-12-21T03:37:01.361Z,96001.13
2018-12-21T03:39:28.876Z,95991.79
2018-12-21T03:41:56.394Z,95994.08
2018-12-21T03:44:24.274Z,95995.70
2018-12-21T03:46:51.916Z,96002.15
2018-12-21T03:49:19.424Z,96001.43
2018-12-21T03:51:47.240Z,95998.13
2018-12-21T03:54:14.960Z,95999.13
2018-12-21T03:56:42.473Z,95994.24
2018-12-21T03:59:10.404Z,96005.56
2018-12-21T04:01:37.923Z,96006.66
2018-12-21T04:04:05.844Z,95993.38
2018-12-21T04:06:33.376Z,96000.89
2018-12-21T04:09:00.899Z,95989.36
2018-12-21T04:11:28.757Z,95986.39
2018-12-21T04:13:59.779Z,95993.09
2018-12-21T04:16:27.296Z,95988.98
2018-12-21T04:18:54.885Z,95989.30
2018-12-21T04:21:22.677Z,95988.48
2018-12-21T04:23:50.187Z,95986.77
2018-12-21T04:26:17.867Z,95988.48
2018-12-21T04:28:45.378Z,95986.30
2018-12-21T04:31:12.919Z,95980.14
2018-12-21T04:33:40.451Z,95977.69
2018-12-21T04:36:08.220Z,95991.58
2018-12-21T04:38:35.735Z,95993.84
2018-12-21T04:41:03.252Z,95993.20
2018-12-21T04:43:31.029Z,95996.70
2018-12-21T04:45:58.554Z,96005.00
2018-12-21T04:48:26.072Z,96001.93
2018-12-21T04:50:53.789Z,96005.23
2018-12-21T04:53:21.388Z,96001.25
2018-12-21T04:55:48.905Z,96001.56
2018-12-21T04:58:16.759Z,95998.97
2018-12-21T05:00:44.295Z,95996.62
2018-12-21T05:03:12.071Z,96009.19
2018-12-21T05:05:39.962Z,96003.49
2018-12-21T05:08:07.598Z,96003.63
2018-12-21T05:10:35.125Z,96004.84
2018-12-21T05:13:02.900Z,96003.94
2018-12-21T05:15:30.821Z,96007.27
2018-12-21T05:17:58.340Z,95997.59
2018-12-21T05:20:26.241Z,95997.95
2018-12-21T05:22:53.773Z,95994.31
2018-12-21T05:25:21.499Z,96009.23
2018-12-21T05:27:49.139Z,96014.23
2018-12-21T05:30:16.857Z,96021.95
2018-12-21T05:32:44.367Z,96024.97
2018-12-21T05:35:11.888Z,96021.42
2018-12-21T05:37:39.783Z,96018.25
2018-12-21T05:40:07.605Z,96019.51
2018-12-21T05:42:35.269Z,96025.96
2018-12-21T05:45:02.882Z,96033.65
2018-12-21T05:47:30.616Z,96033.91
2018-12-21T05:49:58.162Z,96039.97
2018-12-21T05:52:25.701Z,96039.41
2018-12-21T05:54:53.256Z,96037.84
2018-12-21T05:57:20.826Z,96038.77
2018-12-21T05:59:48.347Z,96042.71
2018-12-21T06:02:16.177Z,96042.27
2018-12-21T06:04:43.706Z,96041.28
2018-12-21T06:07:11.235Z,96039.16
2018-12-21T06:09:39.204Z,96041.98
2018-12-21T06:12:06.714Z,96030.97
2018-12-21T06:14:34.261Z,96033.31
2018-12-21T06:17:02.321Z,96026.86
2018-12-21T06:19:29.884Z,96041.38
2018-12-21T06:21:57.446Z,96037.64
2018-12-21T06:24:25.411Z,96036.39
2018-12-21T06:26:52.947Z,96034.75
2018-12-21T06:29:20.465Z,96035.02
2018-12-21T06:31:48.084Z,96026.27
2018-12-21T06:34:15.600Z,96023.66
2018-12-21T06:36:43.202Z,96025.78
2018-12-21T06:39:10.766Z,96030.73
2018-12-21T06:41:38.299Z,96024.33
2018-12-21T06:44:06.079Z,96022.37
2018-12-21T06:46:33.866Z,96017.36
2018-12-21T06:49:01.392Z,96005.59
2018-12-21T06:51:28.967Z,96002.49
2018-12-21T06:53:56.582Z,96007.03
2018-12-21T06:56:24.092Z,96008.08
2018-12-21T06:58:51.932Z,96008.69
2018-12-21T07:01:19.469Z,96010.62
2018-12-21T07:03:47.398Z,96014.31
2018-12-21T07:06:15.032Z,96011.06
2018-12-21T07:08:42.832Z,96027.39
2018-12-21T07:11:10.349Z,96039.49
2018-12-21T07:13:38.144Z,96036.58
2018-12-21T07:16:05.685Z,96041.54
2018-12-21T07:18:36.865Z,96054.32
2018-12-21T07:21:04.383Z,96047.75
2018-12-21T07:23:31.896Z,96043.77
2018-12-21T07:25:59.506Z,96054.09
2018-12-21T07:28:27.034Z,96058.39
2018-12-21T07:30:54.589Z,96055.48
2018-12-21T07:33:22.120Z,96049.39
2018-12-21T07:35:49.870Z,96060.11
2018-12-21T07:38:17.398Z,96055.22
2018-12-21T07:40:44.961Z,96051.78
2018-12-21T07:43:12.490Z,96056.40
2018-12-21T07:45:40.037Z,96059.99
2018-12-21T07:48:07.556Z,96057.94
2018-12-21T07:50:35.091Z,96050.48
2018-12-21T07:53:02.994Z,96050.14
2018-12-21T07:55:30.524Z,96057.72
2018-12-21T07:57:58.700Z,96064.02
2018-12-21T08:00:26.864Z,96069.44
2018-12-21T08:02:54.461Z,96064.77
2018-12-21T08:05:21.975Z,96074.20
2018-12-21T08:07:49.644Z,96080.05
2018-12-21T08:10:17.168Z,96084.84
2018-12-21T08:12:44.761Z,96082.64
2018-12-21T08:15:12.555Z,96084.59
2018-12-21T08:17:40.094Z,96079.70
2018-12-21T08:20:08.012Z,96072.88
2018-12-21T08:22:35.916Z,96073.23
2018-12-21T08:25:03.835Z,96080.75
2018-12-21T08:27:31.348Z,96079.17
2018-12-21T08:29:59.005Z,96070.55
2018-12-21T08:32:26.533Z,96068.41
2018-12-21T08:34:54.039Z,96067.06
2018-12-21T08:37:21.988Z,96064.94
2018-12-21T08:39:49.549Z,96072.48
2018-12-21T08:42:17.080Z,96071.23
2018-12-21T08:44:44.857Z,96069.64
2018-12-21T08:47:12.416Z,96061.39
2018-12-21T08:49:39.928Z,96065.41
2018-12-21T08:52:07.848Z,96056.34
2018-12-21T08:54:35.363Z,96055.72
2018-12-21T08:57:03.191Z,96045.95
2018-12-21T08:59:30.714Z,96051.85
2018-12-21T09:01:58.228Z,96044.57
2018-12-21T09:04:32.090Z,96058.29
2018-12-21T09:06:55.909Z,96065.59
2018-12-21T09:09:23.740Z,96068.88
2018-12-21T09:11:51.264Z,96062.88
2018-12-21T09:14:19.142Z,96046.95
2018-12-21T09:16:46.766Z,96054.19
2018-12-21T09:19:14.615Z,96052.41
2018-12-21T09:21:42.124Z,96051.69
2018-12-21T09:24:09.706Z,96043.59
2018-12-21T09:26:37.252Z,96051.86
2018-12-21T09:29:04.821Z,96048.87
2018-12-21T09:31:32.712Z,96038.82
2018-12-21T09:34:00.249Z,96024.08
2018-12-21T09:36:27.805Z,96011.47
2018-12-21T09:38:55.656Z,96010.20
2018-12-21T09:41:23.335Z,96000.75
2018-12-21T09:43:50.849Z,95993.13
2018-12-21T09:46:18.678Z,95976.03
2018-12-21T09:48:46.625Z,95980.35
2018-12-21T09:51:14.137Z,95976.33
2018-12-21T09:53:41.692Z,95981.70
2018-12-21T09:56:09.234Z,95984.94
2018-12-21T09:58:36.733Z,95971.77
2018-12-21T10:01:04.259Z,95976.21
2018-12-21T10:03:32.005Z,95976.59
2018-12-21T10:05:59.520Z,95978.28
2018-12-21T10:08:27.096Z,95981.55
2018-12-21T10:10:54.963Z,95972.07
2018-12-21T10:13:22.523Z,95973.49
2018-12-21T10:15:50.089Z,95970.00
2018-12-21T10:18:17.970Z,95974.89
2018-12-21T10:20:45.559Z,95977.23
2018-12-21T10:23:13.083Z,95981.31
2018-12-21T10:25:41.032Z,95976.60
2018-12-21T10:28:08.545Z,95978.52
2018-12-21T10:30:36.358Z,95973.66
2018-12-21T10:33:03.918Z,95976.89
2018-12-21T10:35:31.476Z,95969.93
2018-12-21T10:37:59.032Z,95962.72
2018-12-21T10:40:26.543Z,95944.58
2018-12-21T10:42:54.091Z,95955.39
2018-12-21T10:45:21.846Z,95955.25
2018-12-21T10:47:49.882Z,95953.08
2018-12-21T10:50:17.421Z,95958.50
2018-12-21T10:52:45.000Z,95954.25
2018-12-21T10:55:12.514Z,95951.00
2018-12-21T10:57:40.334Z,95944.92
2018-12-21T11:00:09.315Z,95936.02
2018-12-21T11:02:37.090Z,95933.42
2018-12-21T11:05:04.958Z,95931.47
2018-12-21T11:07:32.468Z,95936.00
2018-12-21T11:10:00.371Z,95931.46
2018-12-21T11:12:27.932Z,95928.88
2018-12-21T11:14:55.700Z,95917.41
2018-12-21T11:17:23.234Z,95921.72
2018-12-21T11:19:51.108Z,95921.93
2018-12-21T11:22:18.627Z,95929.08
2018-12-21T11:24:46.190Z,95920.61
2018-12-21T11:27:13.710Z,95916.75
2018-12-21T11:29:41.352Z,95913.35
2018-12-21T11:32:08.906Z,95904.45
2018-12-21T11:34:42.424Z,95909.86
2018-12-21T11:37:10.405Z,95905.41
2018-12-21T11:39:37.939Z,95908.70
2018-12-21T11:42:05.806Z,95901.36
2018-12-21T11:44:33.367Z,95901.94
2018-12-21T11:47:01.239Z,95900.14
2018-12-21T11:49:28.751Z,95890.13
2018-12-21T11:51:56.580Z,95884.52
2018-12-21T11:54:24.098Z,95887.21
2018-12-21T11:56:51.675Z,95886.25
2018-12-21T11:59:19.197Z,95882.58
2018-12-21T12:01:46.740Z,95874.66
2018-12-21T12:04:14.273Z,95883.93
2018-12-21T12:06:41.785Z,95893.56
2018-12-21T12:09:09.572Z,95888.14
2018-12-21T12:11:37.080Z,95885.79
2018-12-21T12:14:04.723Z,95884.28
2018-12-21T12:16:32.637Z,95880.85
2018-12-21T12:19:00.317Z,95890.33
2018-12-21T12:21:27.845Z,95884.91
2018-12-21T12:23:55.663Z,95876.18
2018-12-21T12:26:23.190Z,95874.81
2018-12-21T12:28:50.759Z,95882.82
2018-12-21T12:31:18.312Z,95882.63
2018-12-21T12:33:45.819Z,95867.35
2018-12-21T12:36:13.336Z,95849.36
2018-12-21T12:38:41.106Z,95861.19
2018-12-21T12:41:08.607Z,95870.72
2018-12-21T12:43:36.216Z,95873.41
2018-12-21T12:46:04.287Z,95862.08
2018-12-21T12:48:31.821Z,95843.77
2018-12-21T12:50:59.330Z,95850.46
2018-12-21T12:53:27.278Z,95855.02
2018-12-21T12:55:54.903Z,95861.53
2018-12-21T12:58:22.412Z,95867.70
2018-12-21T13:00:50.304Z,95841.63
2018-12-21T13:03:18.023Z,95874.80
2018-12-21T13:05:45.528Z,95875.89
2018-12-21T13:08:13.366Z,95883.13
2018-12-21T13:10:40.899Z,95880.72
2018-12-21T13:13:11.967Z,95872.77
2018-12-21T13:15:39.485Z,95876.38
2018-12-21T13:18:06.990Z,95870.95
2018-12-21T13:20:34.922Z,95879.41
2018-12-21T13:23:02.419Z,95884.11
2018-12-21T13:25:29.936Z,95869.08
2018-12-21T13:27:57.782Z,95876.44
2018-12-21T13:30:25.418Z,95874.51
2018-12-21T13:32:53.025Z,95868.13
2018-12-21T13:35:20.815Z,95862.24
2018-12-21T13:37:48.365Z,95863.52
2018-12-21T13:40:16.010Z,95872.67
2018-12-21T13:42:43.842Z,95867.35
2018-12-21T13:45:11.365Z,95868.20
2018-12-21T13:47:38.874Z,95858.80
2018-12-21T13:50:09.035Z,95860.79
2018-12-21T13:52:36.569Z,95856.84
2018-12-21T13:55:05.048Z,95850.20
2018-12-21T13:57:32.841Z,95854.26
2018-12-21T14:00:00.367Z,95863.01
2018-12-21T14:02:27.893Z,95854.47
2018-12-21T14:04:55.659Z,95849.22
2018-12-21T14:07:23.182Z,95845.08
2018-12-21T14:09:50.813Z,95846.35
2018-12-21T14:12:18.475Z,95836.11
2018-12-21T14:14:46.340Z,95845.95
2018-12-21T14:17:13.900Z,95851.63
2018-12-21T14:19:41.415Z,95855.64
2018-12-21T14:22:09.248Z,95864.38
2018-12-21T14:24:36.888Z,95868.76
2018-12-21T14:27:04.444Z,95873.08
2018-12-21T14:29:32.233Z,95880.82
2018-12-21T14:31:59.757Z,95883.83
2018-12-21T14:34:27.301Z,95875.22
2018-12-21T14:36:55.095Z,95881.24
2018-12-21T14:39:22.646Z,95884.08
2018-12-21T14:41:50.173Z,95894.72
2018-12-21T14:44:18.045Z,95892.98
2018-12-21T14:46:45.569Z,95902.02
2018-12-21T14:49:13.092Z,95900.94
2018-12-21T14:51:41.002Z,95897.50
2018-12-21T14:54:08.529Z,95892.20
2018-12-21T14:56:36.071Z,95893.42
2018-12-21T14:59:04.003Z,95891.28
2018-12-21T15:01:31.526Z,95890.80
2018-12-21T15:03:59.160Z,95886.93
2018-12-21T15:06:26.709Z,95888.18
2018-12-21T15:08:54.230Z,95890.41
2018-12-21T15:11:21.764Z,95901.00
2018-12-21T15:13:49.603Z,95898.88
2018-12-21T15:16:17.688Z,95888.23
2018-12-21T15:18:45.229Z,95885.16
2018-12-21T15:21:12.789Z,95881.69
2018-12-21T15:23:40.333Z,95885.32
2018-12-21T15:26:07.865Z,95888.75
2018-12-21T15:28:35.709Z,95888.62
2018-12-21T15:31:03.332Z,95893.66
2018-12-21T15:33:30.859Z,95883.76
2018-12-21T15:35:58.596Z,95897.95
2018-12-21T15:38:26.125Z,95900.16
2018-12-21T15:40:53.645Z,95895.52
2018-12-21T15:43:21.456Z,95901.97
2018-12-21T15:45:49.094Z,95898.67
2018-12-21T15:48:16.635Z,95897.44
2018-12-21T15:50:48.669Z,95896.06
2018-12-21T15:53:16.276Z,95893.19
2018-12-21T15:55:43.839Z,95886.77
2018-12-21T15:58:11.735Z,95884.36
2018-12-21T16:00:39.375Z,95882.34
2018-12-21T16:03:06.928Z,95885.25
2018-12-21T16:05:34.501Z,95877.23
2018-12-21T16:08:02.041Z,95876.52
2018-12-21T16:10:29.604Z,95874.50
2018-12-21T16:12:57.407Z,95873.20
2018-12-21T16:15:24.947Z,95880.78
2018-12-21T16:17:52.495Z,95872.94
2018-12-21T16:20:27.156Z,95886.00
2018-12-21T16:22:54.680Z,95885.81
2018-12-21T16:25:22.191Z,95895.28
2018-12-21T16:27:50.000Z,95896.84
2018-12-21T16:30:17.553Z,95904.75
2018-12-21T16:32:45.328Z,95909.13
2018-12-21T16:35:12.851Z,95917.30
2018-12-21T16:37:40.848Z,95923.45
2018-12-21T16:40:09.026Z,95917.95
2018-12-21T16:42:36.630Z,95914.61
2018-12-21T16:45:06.551Z,95912.19
2018-12-21T16:47:34.146Z,95912.32
2018-12-21T16:50:01.898Z,95912.70
2018-12-21T16:52:29.517Z,95913.33
2018-12-21T16:54:57.365Z,95915.39
2018-12-21T16:57:24.906Z,95916.73
2018-12-21T16:59:52.455Z,95908.41
2018-12-21T17:02:20.319Z,95905.72
2018-12-21T17:04:47.878Z,95903.41
2018-12-21T17:07:15.392Z,95899.66
2018-12-21T17:09:43.211Z,95892.16
2018-12-21T17:12:10.732Z,95882.41
2018-12-21T17:14:38.484Z,95886.09
2018-12-21T17:17:06.044Z,95885.87
2018-12-21T17:19:33.587Z,95886.00
2018-12-21T17:22:01.099Z,95879.20
2018-12-21T17:24:28.662Z,95882.05
2018-12-21T17:26:56.220Z,95884.41
2018-12-21T17:29:23.775Z,95888.13
2018-12-21T17:31:51.669Z,95884.30
2018-12-21T17:34:19.196Z,95889.69
2018-12-21T17:36:46.769Z,95887.22
2018-12-21T17:39:14.419Z,95883.39
2018-12-21T17:41:41.979Z,95878.09
2018-12-21T17:44:09.536Z,95885.03
2018-12-21T17:46:37.177Z,95878.03
2018-12-21T17:49:04.708Z,95883.19
2018-12-21T17:51:32.236Z,95878.31
2018-12-21T17:53:59.977Z,95876.97
2018-12-21T17:56:30.008Z,95882.29
2018-12-21T17:58:57.065Z,95881.66
2018-12-21T18:01:24.775Z,95887.42
2018-12-21T18:03:53.182Z,95881.27
2018-12-21T18:06:20.723Z,95879.42
2018-12-21T18:08:48.269Z,95883.11
2018-12-21T18:11:15.797Z,95878.63
2018-12-21T18:13:43.635Z,95876.56
2018-12-21T18:16:11.161Z,95873.38
2018-12-21T18:18:38.969Z,95871.95
2018-12-21T18:21:06.489Z,95861.02
2018-12-21T18:23:34.372Z,95867.02
2018-12-21T18:26:01.932Z,95860.73
2018-12-21T18:28:29.762Z,95853.23
2018-12-21T18:31:00.119Z,95854.02
2018-12-21T18:33:27.681Z,95850.83
2018-12-21T18:35:55.568Z,95860.30
2018-12-21T18:40:57.730Z,95859.58
2018-12-21T18:43:25.265Z,95863.77
2018-12-21T18:45:53.276Z,95865.82
2018-12-21T18:48:20.793Z,95862.14
2018-12-21T18:50:48.590Z,95866.95
2018-12-21T18:53:16.243Z,95865.11
2018-12-21T19:39:04.745Z,95822.97
2018-12-21T19:41:32.265Z,95813.62
2018-12-21T19:43:59.773Z,95820.40
2018-12-21T19:46:27.848Z,95816.80
2018-12-21T19:48:55.384Z,95813.17
2018-12-21T19:51:23.395Z,95814.02
2018-12-21T19:53:51.052Z,95810.27
2018-12-21T19:56:19.580Z,95809.47
2018-12-21T19:58:47.095Z,95797.98
2018-12-21T20:01:14.811Z,95795.38
2018-12-21T20:03:42.347Z,95804.44
2018-12-21T20:06:09.917Z,95793.47
2018-12-21T20:08:37.714Z,95793.69
2018-12-21T20:11:05.649Z,95799.84
2018-12-21T20:13:34.505Z,95789.66
2018-12-21T20:16:02.638Z,95796.38
2018-12-21T20:18:30.173Z,95806.45
2018-12-21T20:20:57.731Z,95798.63
2018-12-21T20:23:25.526Z,95794.81
2018-12-21T20:25:53.057Z,95795.03
2018-12-21T20:28:20.583Z,95790.49
2018-12-21T20:30:48.480Z,95794.19
2018-12-21T20:33:16.140Z,95783.17
2018-12-21T20:35:43.698Z,95786.29
2018-12-21T20:38:11.469Z,95783.45
2018-12-21T20:40:38.999Z,95783.89
2018-12-21T20:43:06.527Z,95782.38
2018-12-21T20:45:34.333Z,95780.54
2018-12-21T20:48:01.898Z,95775.95
2018-12-21T20:50:29.460Z,95778.69
2018-12-21T20:52:56.975Z,95776.67
2018-12-21T20:55:24.678Z,95764.98
2018-12-21T20:57:52.574Z,95774.66
2018-12-21T21:00:20.539Z,95772.64
2018-12-21T21:02:48.069Z,95768.53
2018-12-21T21:05:15.844Z,95766.67
2018-12-21T21:07:43.368Z,95759.16
2018-12-21T21:10:11.793Z,95761.15
2018-12-21T21:12:39.769Z,95757.95
2018-12-21T21:15:10.543Z,95757.12
2018-12-21T21:17:38.355Z,95747.22
2018-12-21T21:20:11.868Z,95747.95
2018-12-21T21:22:39.429Z,95743.57
2018-12-21T21:25:07.248Z,95754.46
2018-12-21T21:27:34.782Z,95751.32
2018-12-21T21:30:02.804Z,95748.26
2018-12-21T21:32:30.347Z,95742.27
2018-12-21T21:34:57.877Z,95743.04
2018-12-21T21:37:25.701Z,95738.44
2018-12-21T21:39:53.228Z,95737.88
2018-12-21T21:42:20.788Z,95735.29
2018-12-21T21:44:48.574Z,95740.63
2018-12-21T21:47:16.111Z,95740.67
2018-12-21T21:49:43.628Z,95747.95
2018-12-21T21:52:11.378Z,95743.26
2018-12-21T21:54:38.910Z,95747.43
2018-12-21T21:57:06.448Z,95742.80
2018-12-21T21:59:34.227Z,95745.03
2018-12-21T22:02:01.774Z,95735.58
2018-12-21T22:04:29.330Z,95741.34
2018-12-21T22:06:56.888Z,95732.30
2018-12-21T22:09:24.420Z,95731.00
2018-12-21T22:11:52.249Z,95737.14
2018-12-21T22:14:19.768Z,95728.19
2018-12-21T22:16:47.293Z,95719.91
2018-12-21T22:19:15.090Z,95726.11
2018-12-21T22:21:42.617Z,95720.31
2018-12-21T22:24:10.170Z,95729.94
2018-12-21T22:26:37.702Z,95730.44
2018-12-21T22:29:05.219Z,95740.73
2018-12-21T22:31:33.004Z,95725.34
2018-12-21T22:34:00.512Z,95728.75
2018-12-21T22:36:28.041Z,95716.39
2018-12-21T22:38:55.897Z,95719.18
2018-12-21T22:41:23.426Z,95715.12
2018-12-21T22:43:50.953Z,95712.77
2018-12-21T22:46:18.795Z,95717.35
2018-12-21T22:48:46.330Z,95714.28
2018-12-21T22:51:13.857Z,95711.70
2018-12-21T22:53:41.415Z,95715.06
2018-12-21T22:56:08.944Z,95711.36
2018-12-21T22:58:36.455Z,95716.41
2018-12-21T23:01:04.427Z,95712.02
2018-12-21T23:03:32.908Z,95704.53
2018-12-21T23:06:00.421Z,95701.80
2018-12-21T23:08:28.246Z,95710.80
2018-12-21T23:10:55.825Z,95705.27
2018-12-21T23:13:23.363Z,95704.75
2018-12-21T23:15:50.927Z,95693.86
2018-12-21T23:18:18.454Z,95684.05
2018-12-21T23:20:46.149Z,95674.50
2018-12-21T23:23:13.712Z,95670.81
2018-12-21T23:25:41.341Z,95666.51
2018-12-21T23:28:08.976Z,95658.04
2018-12-21T23:30:36.787Z,95655.48
2018-12-21T23:33:05.984Z,95643.69
2018-12-21T23:35:34.152Z,95651.56
2018-12-21T23:38:01.746Z,95661.34
2018-12-21T23:40:29.684Z,95659.79
2018-12-21T23:42:57.199Z,95669.74
2018-12-21T23:45:24.770Z,95673.65
2018-12-21T23:47:52.300Z,95669.84
2018-12-21T23:50:20.124Z,95667.09
2018-12-21T23:52:47.681Z,95675.23
2018-12-21T23:55:15.548Z,95667.44
2018-12-21T23:57:43.063Z,95671.86
